sensor_id;sensor_type;location;lat;lon;timestamp;P1;durP1;ratioP1;P2;durP2;ratioP2
5951;SDS011;3001;42.622;23.194;2022-12-18T00:02:02;2.70;;;2.60;;
5951;SDS011;3001;42.622;23.194;2022-12-18T00:04:30;2.70;;;2.60;;
5951;SDS011;3001;42.622;23.194;2022-12-18T00:06:57;3.30;;;2.80;;
5951;SDS011;3001;42.622;23.194;2022-12-18T00:09:23;3.00;;;2.80;;
5951;SDS011;3001;42.622;23.194;2022-12-18T00:11:50;2.27;;;2.17;;
5951;SDS011;3001;42.622;23.194;2022-12-18T00:14:17;2.67;;;2.57;;
5951;SDS011;3001;42.622;23.194;2022-12-18T00:16:44;2.40;;;2.30;;
5951;SDS011;3001;42.622;23.194;2022-12-18T00:19:11;2.80;;;2.60;;
5951;SDS011;3001;42.622;23.194;2022-12-18T00:21:41;2.40;;;2.30;;
5951;SDS011;3001;42.622;23.194;2022-12-18T00:24:09;2.30;;;2.20;;
5951;SDS011;3001;42.622;23.194;2022-12-18T00:26:37;2.87;;;2.67;;
5951;SDS011;3001;42.622;23.194;2022-12-18T00:29:05;2.30;;;2.20;;
5951;SDS011;3001;42.622;23.194;2022-12-18T00:31:34;3.23;;;3.03;;
5951;SDS011;3001;42.622;23.194;2022-12-18T00:34:01;3.33;;;3.13;;
5951;SDS011;3001;42.622;23.194;2022-12-18T00:36:30;3.50;;;3.30;;
5951;SDS011;3001;42.622;23.194;2022-12-18T00:39:00;3.93;;;3.73;;
5951;SDS011;3001;42.622;23.194;2022-12-18T00:41:29;4.33;;;4.10;;
5951;SDS011;3001;42.622;23.194;2022-12-18T00:44:10;4.13;;;3.83;;
5951;SDS011;3001;42.622;23.194;2022-12-18T00:46:38;4.10;;;3.80;;
5951;SDS011;3001;42.622;23.194;2022-12-18T00:49:04;4.17;;;3.87;;
5951;SDS011;3001;42.622;23.194;2022-12-18T00:51:31;4.50;;;3.90;;
5951;SDS011;3001;42.622;23.194;2022-12-18T00:53:59;4.10;;;3.77;;
5951;SDS011;3001;42.622;23.194;2022-12-18T00:56:26;3.90;;;3.60;;
5951;SDS011;3001;42.622;23.194;2022-12-18T00:58:53;3.50;;;3.23;;
5951;SDS011;3001;42.622;23.194;2022-12-18T01:01:20;3.73;;;3.53;;
5951;SDS011;3001;42.622;23.194;2022-12-18T01:03:47;3.87;;;3.67;;
5951;SDS011;3001;42.622;23.194;2022-12-18T01:06:14;4.30;;;4.10;;
5951;SDS011;3001;42.622;23.194;2022-12-18T01:08:42;5.40;;;4.97;;
5951;SDS011;3001;42.622;23.194;2022-12-18T01:11:13;5.10;;;4.80;;
5951;SDS011;3001;42.622;23.194;2022-12-18T01:13:41;5.00;;;4.60;;
5951;SDS011;3001;42.622;23.194;2022-12-18T01:16:10;5.17;;;4.77;;
5951;SDS011;3001;42.622;23.194;2022-12-18T01:18:38;5.30;;;4.80;;
5951;SDS011;3001;42.622;23.194;2022-12-18T01:21:05;5.30;;;4.97;;
5951;SDS011;3001;42.622;23.194;2022-12-18T01:23:33;4.67;;;4.37;;
5951;SDS011;3001;42.622;23.194;2022-12-18T01:26:03;4.43;;;4.13;;
5951;SDS011;3001;42.622;23.194;2022-12-18T01:28:32;4.27;;;3.97;;
5951;SDS011;3001;42.622;23.194;2022-12-18T01:31:08;5.00;;;4.70;;
5951;SDS011;3001;42.622;23.194;2022-12-18T01:33:36;4.90;;;4.60;;
5951;SDS011;3001;42.622;23.194;2022-12-18T01:36:03;5.43;;;4.93;;
5951;SDS011;3001;42.622;23.194;2022-12-18T01:38:30;5.37;;;4.97;;
5951;SDS011;3001;42.622;23.194;2022-12-18T01:40:57;4.53;;;4.30;;
5951;SDS011;3001;42.622;23.194;2022-12-18T01:46:11;5.90;;;5.40;;
5951;SDS011;3001;42.622;23.194;2022-12-18T01:48:38;5.33;;;4.93;;
5951;SDS011;3001;42.622;23.194;2022-12-18T01:51:07;5.27;;;4.50;;
5951;SDS011;3001;42.622;23.194;2022-12-18T01:53:36;5.00;;;4.57;;
5951;SDS011;3001;42.622;23.194;2022-12-18T01:56:05;5.17;;;4.80;;
5951;SDS011;3001;42.622;23.194;2022-12-18T01:58:34;4.93;;;4.60;;
5951;SDS011;3001;42.622;23.194;2022-12-18T02:01:07;5.30;;;5.00;;
5951;SDS011;3001;42.622;23.194;2022-12-18T02:03:34;5.60;;;5.20;;
5951;SDS011;3001;42.622;23.194;2022-12-18T02:06:02;5.50;;;5.10;;
5951;SDS011;3001;42.622;23.194;2022-12-18T02:08:37;5.03;;;4.73;;
5951;SDS011;3001;42.622;23.194;2022-12-18T02:11:10;5.13;;;4.73;;
5951;SDS011;3001;42.622;23.194;2022-12-18T02:13:45;4.90;;;4.60;;
5951;SDS011;3001;42.622;23.194;2022-12-18T02:16:21;5.73;;;5.23;;
5951;SDS011;3001;42.622;23.194;2022-12-18T02:18:53;4.63;;;4.33;;
5951;SDS011;3001;42.622;23.194;2022-12-18T02:21:25;6.70;;;5.90;;
5951;SDS011;3001;42.622;23.194;2022-12-18T02:24:03;7.17;;;6.70;;
5951;SDS011;3001;42.622;23.194;2022-12-18T02:26:43;7.73;;;7.07;;
5951;SDS011;3001;42.622;23.194;2022-12-18T02:29:15;6.63;;;6.03;;
5951;SDS011;3001;42.622;23.194;2022-12-18T02:31:45;5.70;;;5.30;;
5951;SDS011;3001;42.622;23.194;2022-12-18T02:34:16;6.13;;;5.73;;
5951;SDS011;3001;42.622;23.194;2022-12-18T02:36:44;5.83;;;5.43;;
5951;SDS011;3001;42.622;23.194;2022-12-18T02:39:14;5.87;;;5.57;;
5951;SDS011;3001;42.622;23.194;2022-12-18T02:41:44;5.60;;;5.20;;
5951;SDS011;3001;42.622;23.194;2022-12-18T02:44:12;6.00;;;5.53;;
5951;SDS011;3001;42.622;23.194;2022-12-18T02:46:40;6.10;;;5.70;;
5951;SDS011;3001;42.622;23.194;2022-12-18T02:49:12;5.97;;;5.47;;
5951;SDS011;3001;42.622;23.194;2022-12-18T02:51:51;6.23;;;5.73;;
5951;SDS011;3001;42.622;23.194;2022-12-18T02:54:24;6.53;;;5.63;;
5951;SDS011;3001;42.622;23.194;2022-12-18T02:57:05;6.93;;;5.57;;
5951;SDS011;3001;42.622;23.194;2022-12-18T02:59:42;6.83;;;5.53;;
5951;SDS011;3001;42.622;23.194;2022-12-18T03:02:18;7.07;;;6.57;;
5951;SDS011;3001;42.622;23.194;2022-12-18T03:04:53;7.33;;;6.60;;
5951;SDS011;3001;42.622;23.194;2022-12-18T03:07:35;6.63;;;5.97;;
5951;SDS011;3001;42.622;23.194;2022-12-18T03:10:06;6.73;;;6.23;;
5951;SDS011;3001;42.622;23.194;2022-12-18T03:12:40;7.03;;;6.37;;
5951;SDS011;3001;42.622;23.194;2022-12-18T03:15:11;27.67;;;21.00;;
5951;SDS011;3001;42.622;23.194;2022-12-18T03:17:42;12.00;;;9.77;;
5951;SDS011;3001;42.622;23.194;2022-12-18T03:20:13;9.83;;;8.70;;
5951;SDS011;3001;42.622;23.194;2022-12-18T03:22:43;9.07;;;8.33;;
5951;SDS011;3001;42.622;23.194;2022-12-18T03:25:14;8.83;;;5.03;;
5951;SDS011;3001;42.622;23.194;2022-12-18T03:27:46;5.13;;;4.57;;
5951;SDS011;3001;42.622;23.194;2022-12-18T03:30:15;4.53;;;4.23;;
5951;SDS011;3001;42.622;23.194;2022-12-18T03:32:44;4.57;;;4.27;;
5951;SDS011;3001;42.622;23.194;2022-12-18T03:35:16;3.90;;;3.60;;
5951;SDS011;3001;42.622;23.194;2022-12-18T03:37:47;4.23;;;3.93;;
5951;SDS011;3001;42.622;23.194;2022-12-18T03:40:14;4.00;;;3.63;;
5951;SDS011;3001;42.622;23.194;2022-12-18T03:42:43;3.20;;;3.00;;
5951;SDS011;3001;42.622;23.194;2022-12-18T03:45:18;3.03;;;2.83;;
5951;SDS011;3001;42.622;23.194;2022-12-18T03:47:53;3.17;;;2.97;;
5951;SDS011;3001;42.622;23.194;2022-12-18T03:50:27;3.17;;;2.97;;
5951;SDS011;3001;42.622;23.194;2022-12-18T03:53:03;3.37;;;2.97;;
5951;SDS011;3001;42.622;23.194;2022-12-18T03:55:40;2.20;;;2.10;;
5951;SDS011;3001;42.622;23.194;2022-12-18T03:58:11;2.80;;;2.70;;
5951;SDS011;3001;42.622;23.194;2022-12-18T04:00:43;3.20;;;3.00;;
5951;SDS011;3001;42.622;23.194;2022-12-18T04:03:10;3.37;;;3.07;;
5951;SDS011;3001;42.622;23.194;2022-12-18T04:05:38;3.00;;;2.80;;
5951;SDS011;3001;42.622;23.194;2022-12-18T04:08:06;4.63;;;3.67;;
5951;SDS011;3001;42.622;23.194;2022-12-18T04:10:33;4.07;;;3.77;;
5951;SDS011;3001;42.622;23.194;2022-12-18T04:13:00;6.93;;;3.07;;
5951;SDS011;3001;42.622;23.194;2022-12-18T04:15:28;3.30;;;3.10;;
5951;SDS011;3001;42.622;23.194;2022-12-18T04:17:55;3.00;;;2.80;;
5951;SDS011;3001;42.622;23.194;2022-12-18T04:20:22;3.10;;;2.57;;
5951;SDS011;3001;42.622;23.194;2022-12-18T04:22:48;3.40;;;3.13;;
5951;SDS011;3001;42.622;23.194;2022-12-18T04:25:15;2.97;;;2.77;;
5951;SDS011;3001;42.622;23.194;2022-12-18T04:27:42;3.37;;;3.17;;
5951;SDS011;3001;42.622;23.194;2022-12-18T04:30:09;4.07;;;3.80;;
5951;SDS011;3001;42.622;23.194;2022-12-18T04:32:38;4.70;;;4.30;;
5951;SDS011;3001;42.622;23.194;2022-12-18T04:35:05;4.90;;;4.60;;
5951;SDS011;3001;42.622;23.194;2022-12-18T04:37:35;4.57;;;4.27;;
5951;SDS011;3001;42.622;23.194;2022-12-18T04:40:02;4.20;;;3.90;;
5951;SDS011;3001;42.622;23.194;2022-12-18T04:42:29;3.90;;;3.60;;
5951;SDS011;3001;42.622;23.194;2022-12-18T04:44:56;3.67;;;3.37;;
5951;SDS011;3001;42.622;23.194;2022-12-18T04:47:22;4.87;;;3.13;;
5951;SDS011;3001;42.622;23.194;2022-12-18T04:49:50;2.73;;;2.53;;
5951;SDS011;3001;42.622;23.194;2022-12-18T04:52:17;2.73;;;2.57;;
5951;SDS011;3001;42.622;23.194;2022-12-18T04:54:44;2.80;;;2.60;;
5951;SDS011;3001;42.622;23.194;2022-12-18T04:57:11;3.27;;;3.07;;
5951;SDS011;3001;42.622;23.194;2022-12-18T04:59:37;3.77;;;3.47;;
5951;SDS011;3001;42.622;23.194;2022-12-18T05:02:04;3.37;;;3.17;;
5951;SDS011;3001;42.622;23.194;2022-12-18T05:04:31;3.57;;;3.37;;
5951;SDS011;3001;42.622;23.194;2022-12-18T05:06:59;3.43;;;3.23;;
5951;SDS011;3001;42.622;23.194;2022-12-18T05:09:25;3.83;;;3.63;;
5951;SDS011;3001;42.622;23.194;2022-12-18T05:11:52;3.53;;;3.33;;
5951;SDS011;3001;42.622;23.194;2022-12-18T05:14:19;4.10;;;3.80;;
5951;SDS011;3001;42.622;23.194;2022-12-18T05:16:46;3.93;;;3.63;;
5951;SDS011;3001;42.622;23.194;2022-12-18T05:19:12;4.27;;;3.97;;
5951;SDS011;3001;42.622;23.194;2022-12-18T05:21:39;3.57;;;3.37;;
5951;SDS011;3001;42.622;23.194;2022-12-18T05:24:07;4.07;;;3.67;;
5951;SDS011;3001;42.622;23.194;2022-12-18T05:26:34;4.33;;;3.70;;
5951;SDS011;3001;42.622;23.194;2022-12-18T05:29:01;3.93;;;3.73;;
5951;SDS011;3001;42.622;23.194;2022-12-18T05:31:27;4.40;;;4.10;;
5951;SDS011;3001;42.622;23.194;2022-12-18T05:33:54;3.70;;;3.40;;
5951;SDS011;3001;42.622;23.194;2022-12-18T05:36:21;3.77;;;3.57;;
5951;SDS011;3001;42.622;23.194;2022-12-18T05:38:48;4.37;;;4.07;;
5951;SDS011;3001;42.622;23.194;2022-12-18T05:41:16;4.00;;;3.77;;
5951;SDS011;3001;42.622;23.194;2022-12-18T05:43:43;4.23;;;3.93;;
5951;SDS011;3001;42.622;23.194;2022-12-18T05:46:11;4.03;;;3.73;;
5951;SDS011;3001;42.622;23.194;2022-12-18T05:48:39;4.70;;;4.40;;
5951;SDS011;3001;42.622;23.194;2022-12-18T05:51:06;3.70;;;3.40;;
5951;SDS011;3001;42.622;23.194;2022-12-18T05:53:34;4.13;;;3.83;;
5951;SDS011;3001;42.622;23.194;2022-12-18T05:56:03;3.97;;;3.67;;
5951;SDS011;3001;42.622;23.194;2022-12-18T05:58:32;3.97;;;3.67;;
5951;SDS011;3001;42.622;23.194;2022-12-18T06:01:05;4.47;;;4.00;;
5951;SDS011;3001;42.622;23.194;2022-12-18T06:03:33;5.17;;;4.67;;
5951;SDS011;3001;42.622;23.194;2022-12-18T06:06:00;4.83;;;4.43;;
5951;SDS011;3001;42.622;23.194;2022-12-18T06:08:27;5.43;;;3.60;;
5951;SDS011;3001;42.622;23.194;2022-12-18T06:10:54;4.50;;;4.20;;
5951;SDS011;3001;42.622;23.194;2022-12-18T06:13:21;4.70;;;4.27;;
5951;SDS011;3001;42.622;23.194;2022-12-18T06:15:50;4.37;;;4.07;;
5951;SDS011;3001;42.622;23.194;2022-12-18T06:18:16;5.00;;;4.60;;
5951;SDS011;3001;42.622;23.194;2022-12-18T06:20:43;5.30;;;5.00;;
5951;SDS011;3001;42.622;23.194;2022-12-18T06:23:10;4.90;;;4.47;;
5951;SDS011;3001;42.622;23.194;2022-12-18T06:25:37;4.53;;;4.23;;
5951;SDS011;3001;42.622;23.194;2022-12-18T06:28:05;5.00;;;4.60;;
5951;SDS011;3001;42.622;23.194;2022-12-18T06:30:32;4.47;;;4.17;;
5951;SDS011;3001;42.622;23.194;2022-12-18T06:33:00;5.13;;;4.63;;
5951;SDS011;3001;42.622;23.194;2022-12-18T06:35:27;4.40;;;4.00;;
5951;SDS011;3001;42.622;23.194;2022-12-18T06:37:54;5.10;;;4.70;;
5951;SDS011;3001;42.622;23.194;2022-12-18T06:40:20;5.03;;;4.53;;
5951;SDS011;3001;42.622;23.194;2022-12-18T06:42:47;4.90;;;4.60;;
5951;SDS011;3001;42.622;23.194;2022-12-18T06:45:14;4.70;;;4.40;;
5951;SDS011;3001;42.622;23.194;2022-12-18T06:47:41;5.13;;;4.73;;
5951;SDS011;3001;42.622;23.194;2022-12-18T06:50:09;5.67;;;5.17;;
5951;SDS011;3001;42.622;23.194;2022-12-18T06:52:36;5.20;;;4.70;;
5951;SDS011;3001;42.622;23.194;2022-12-18T06:55:04;5.33;;;4.83;;
5951;SDS011;3001;42.622;23.194;2022-12-18T06:57:31;5.63;;;5.13;;
5951;SDS011;3001;42.622;23.194;2022-12-18T06:59:58;5.80;;;4.93;;
5951;SDS011;3001;42.622;23.194;2022-12-18T07:02:25;5.37;;;4.97;;
5951;SDS011;3001;42.622;23.194;2022-12-18T07:04:51;4.97;;;4.57;;
5951;SDS011;3001;42.622;23.194;2022-12-18T07:07:19;5.40;;;4.33;;
5951;SDS011;3001;42.622;23.194;2022-12-18T07:09:46;5.10;;;4.40;;
5951;SDS011;3001;42.622;23.194;2022-12-18T07:12:14;5.00;;;4.60;;
5951;SDS011;3001;42.622;23.194;2022-12-18T07:14:41;5.90;;;4.43;;
5951;SDS011;3001;42.622;23.194;2022-12-18T07:17:07;5.30;;;4.80;;
5951;SDS011;3001;42.622;23.194;2022-12-18T07:19:34;5.27;;;4.87;;
5951;SDS011;3001;42.622;23.194;2022-12-18T07:22:01;4.90;;;4.30;;
5951;SDS011;3001;42.622;23.194;2022-12-18T07:24:29;4.90;;;4.60;;
5951;SDS011;3001;42.622;23.194;2022-12-18T07:26:56;4.80;;;4.40;;
5951;SDS011;3001;42.622;23.194;2022-12-18T07:29:22;5.03;;;4.50;;
5951;SDS011;3001;42.622;23.194;2022-12-18T07:31:49;5.30;;;4.80;;
5951;SDS011;3001;42.622;23.194;2022-12-18T07:34:16;5.03;;;4.63;;
5951;SDS011;3001;42.622;23.194;2022-12-18T07:36:43;5.27;;;4.83;;
5951;SDS011;3001;42.622;23.194;2022-12-18T07:39:10;4.50;;;4.10;;
5951;SDS011;3001;42.622;23.194;2022-12-18T07:41:39;4.47;;;4.17;;
5951;SDS011;3001;42.622;23.194;2022-12-18T07:44:11;5.10;;;4.70;;
5951;SDS011;3001;42.622;23.194;2022-12-18T07:46:38;4.67;;;4.37;;
5951;SDS011;3001;42.622;23.194;2022-12-18T07:49:05;6.73;;;5.90;;
5951;SDS011;3001;42.622;23.194;2022-12-18T07:51:32;4.53;;;4.23;;
5951;SDS011;3001;42.622;23.194;2022-12-18T07:53:58;4.93;;;4.57;;
5951;SDS011;3001;42.622;23.194;2022-12-18T07:56:25;5.30;;;4.90;;
5951;SDS011;3001;42.622;23.194;2022-12-18T07:58:53;4.60;;;4.30;;
5951;SDS011;3001;42.622;23.194;2022-12-18T08:01:20;5.53;;;5.03;;
5951;SDS011;3001;42.622;23.194;2022-12-18T08:03:47;5.47;;;5.00;;
5951;SDS011;3001;42.622;23.194;2022-12-18T08:06:14;5.87;;;4.80;;
5951;SDS011;3001;42.622;23.194;2022-12-18T08:08:40;4.40;;;4.10;;
5951;SDS011;3001;42.622;23.194;2022-12-18T08:11:07;5.30;;;4.80;;
5951;SDS011;3001;42.622;23.194;2022-12-18T08:13:34;5.77;;;5.23;;
5951;SDS011;3001;42.622;23.194;2022-12-18T08:16:03;5.23;;;4.83;;
5951;SDS011;3001;42.622;23.194;2022-12-18T08:18:32;6.83;;;6.13;;
5951;SDS011;3001;42.622;23.194;2022-12-18T08:21:07;6.57;;;5.43;;
5951;SDS011;3001;42.622;23.194;2022-12-18T08:23:34;6.10;;;5.50;;
5951;SDS011;3001;42.622;23.194;2022-12-18T08:26:00;6.10;;;5.60;;
5951;SDS011;3001;42.622;23.194;2022-12-18T08:28:27;6.33;;;5.80;;
5951;SDS011;3001;42.622;23.194;2022-12-18T08:30:54;7.20;;;6.50;;
5951;SDS011;3001;42.622;23.194;2022-12-18T08:33:22;6.37;;;5.87;;
5951;SDS011;3001;42.622;23.194;2022-12-18T08:35:50;7.13;;;6.00;;
5951;SDS011;3001;42.622;23.194;2022-12-18T08:38:17;8.83;;;6.97;;
5951;SDS011;3001;42.622;23.194;2022-12-18T08:40:44;7.17;;;6.47;;
5951;SDS011;3001;42.622;23.194;2022-12-18T08:43:11;7.30;;;6.27;;
5951;SDS011;3001;42.622;23.194;2022-12-18T08:45:55;6.60;;;5.70;;
5951;SDS011;3001;42.622;23.194;2022-12-18T08:48:24;8.83;;;7.10;;
5951;SDS011;3001;42.622;23.194;2022-12-18T08:50:54;7.47;;;6.77;;
5951;SDS011;3001;42.622;23.194;2022-12-18T08:53:21;7.67;;;6.27;;
5951;SDS011;3001;42.622;23.194;2022-12-18T08:55:48;7.93;;;7.07;;
5951;SDS011;3001;42.622;23.194;2022-12-18T08:58:14;10.40;;;6.93;;
5951;SDS011;3001;42.622;23.194;2022-12-18T09:00:41;6.73;;;6.13;;
5951;SDS011;3001;42.622;23.194;2022-12-18T09:03:10;6.13;;;5.60;;
5951;SDS011;3001;42.622;23.194;2022-12-18T09:05:39;6.10;;;5.63;;
5951;SDS011;3001;42.622;23.194;2022-12-18T09:08:06;7.50;;;5.63;;
5951;SDS011;3001;42.622;23.194;2022-12-18T09:10:33;6.30;;;5.67;;
5951;SDS011;3001;42.622;23.194;2022-12-18T09:13:00;6.73;;;5.53;;
5951;SDS011;3001;42.622;23.194;2022-12-18T09:15:27;6.17;;;5.67;;
5951;SDS011;3001;42.622;23.194;2022-12-18T09:17:53;8.43;;;6.73;;
5951;SDS011;3001;42.622;23.194;2022-12-18T09:20:20;8.37;;;6.73;;
5951;SDS011;3001;42.622;23.194;2022-12-18T09:22:48;7.50;;;6.77;;
5951;SDS011;3001;42.622;23.194;2022-12-18T09:25:15;14.67;;;9.20;;
5951;SDS011;3001;42.622;23.194;2022-12-18T09:27:42;13.03;;;9.83;;
5951;SDS011;3001;42.622;23.194;2022-12-18T09:30:09;15.93;;;9.73;;
5951;SDS011;3001;42.622;23.194;2022-12-18T09:32:36;18.60;;;11.30;;
5951;SDS011;3001;42.622;23.194;2022-12-18T09:35:03;23.90;;;13.37;;
5951;SDS011;3001;42.622;23.194;2022-12-18T09:37:30;19.83;;;11.67;;
5951;SDS011;3001;42.622;23.194;2022-12-18T09:39:58;35.73;;;18.90;;
5951;SDS011;3001;42.622;23.194;2022-12-18T09:42:25;34.17;;;16.97;;
5951;SDS011;3001;42.622;23.194;2022-12-18T09:44:52;20.67;;;13.17;;
5951;SDS011;3001;42.622;23.194;2022-12-18T09:47:21;22.27;;;13.10;;
5951;SDS011;3001;42.622;23.194;2022-12-18T09:49:52;14.53;;;11.07;;
5951;SDS011;3001;42.622;23.194;2022-12-18T09:52:22;13.23;;;11.23;;
5951;SDS011;3001;42.622;23.194;2022-12-18T09:54:53;19.23;;;13.13;;
5951;SDS011;3001;42.622;23.194;2022-12-18T09:57:26;16.53;;;11.70;;
5951;SDS011;3001;42.622;23.194;2022-12-18T09:59:54;19.17;;;12.73;;
5951;SDS011;3001;42.622;23.194;2022-12-18T10:02:25;20.70;;;13.13;;
5951;SDS011;3001;42.622;23.194;2022-12-18T10:04:56;21.77;;;13.80;;
5951;SDS011;3001;42.622;23.194;2022-12-18T10:07:33;14.97;;;12.03;;
5951;SDS011;3001;42.622;23.194;2022-12-18T10:10:13;15.13;;;12.03;;
5951;SDS011;3001;42.622;23.194;2022-12-18T10:12:51;16.43;;;11.37;;
5951;SDS011;3001;42.622;23.194;2022-12-18T10:15:27;14.60;;;10.47;;
5951;SDS011;3001;42.622;23.194;2022-12-18T10:18:03;13.10;;;10.67;;
5951;SDS011;3001;42.622;23.194;2022-12-18T10:20:41;17.30;;;11.40;;
5951;SDS011;3001;42.622;23.194;2022-12-18T10:23:12;13.33;;;10.57;;
5951;SDS011;3001;42.622;23.194;2022-12-18T10:25:50;13.87;;;10.80;;
5951;SDS011;3001;42.622;23.194;2022-12-18T10:28:22;14.93;;;11.03;;
5951;SDS011;3001;42.622;23.194;2022-12-18T10:30:49;15.70;;;11.43;;
5951;SDS011;3001;42.622;23.194;2022-12-18T10:33:17;16.47;;;11.93;;
5951;SDS011;3001;42.622;23.194;2022-12-18T10:35:45;12.80;;;10.80;;
5951;SDS011;3001;42.622;23.194;2022-12-18T10:38:21;16.77;;;11.63;;
5951;SDS011;3001;42.622;23.194;2022-12-18T10:40:50;17.87;;;11.67;;
5951;SDS011;3001;42.622;23.194;2022-12-18T10:43:24;17.93;;;11.97;;
5951;SDS011;3001;42.622;23.194;2022-12-18T10:46:00;12.80;;;9.73;;
5951;SDS011;3001;42.622;23.194;2022-12-18T10:48:30;18.87;;;12.80;;
5951;SDS011;3001;42.622;23.194;2022-12-18T10:50:58;16.70;;;11.97;;
5951;SDS011;3001;42.622;23.194;2022-12-18T10:53:26;15.67;;;12.00;;
5951;SDS011;3001;42.622;23.194;2022-12-18T10:55:55;19.23;;;12.23;;
5951;SDS011;3001;42.622;23.194;2022-12-18T10:58:27;26.47;;;14.10;;
5951;SDS011;3001;42.622;23.194;2022-12-18T11:01:04;14.87;;;10.97;;
5951;SDS011;3001;42.622;23.194;2022-12-18T11:03:34;18.50;;;12.50;;
5951;SDS011;3001;42.622;23.194;2022-12-18T11:06:03;19.63;;;12.23;;
5951;SDS011;3001;42.622;23.194;2022-12-18T11:08:32;16.10;;;12.47;;
5951;SDS011;3001;42.622;23.194;2022-12-18T11:10:59;16.87;;;11.83;;
5951;SDS011;3001;42.622;23.194;2022-12-18T11:13:29;14.17;;;10.50;;
5951;SDS011;3001;42.622;23.194;2022-12-18T11:15:57;13.10;;;8.80;;
5951;SDS011;3001;42.622;23.194;2022-12-18T11:18:25;10.40;;;7.93;;
5951;SDS011;3001;42.622;23.194;2022-12-18T11:20:55;10.43;;;8.90;;
5951;SDS011;3001;42.622;23.194;2022-12-18T11:23:23;10.17;;;9.17;;
5951;SDS011;3001;42.622;23.194;2022-12-18T11:25:55;13.53;;;10.40;;
5951;SDS011;3001;42.622;23.194;2022-12-18T11:28:35;12.63;;;8.97;;
5951;SDS011;3001;42.622;23.194;2022-12-18T11:31:17;11.77;;;8.00;;
5951;SDS011;3001;42.622;23.194;2022-12-18T11:33:47;10.83;;;8.70;;
5951;SDS011;3001;42.622;23.194;2022-12-18T11:36:22;9.37;;;7.73;;
5951;SDS011;3001;42.622;23.194;2022-12-18T11:38:50;9.93;;;7.63;;
5951;SDS011;3001;42.622;23.194;2022-12-18T11:41:23;8.00;;;7.20;;
5951;SDS011;3001;42.622;23.194;2022-12-18T11:44:21;9.57;;;7.40;;
5951;SDS011;3001;42.622;23.194;2022-12-18T11:46:53;12.37;;;8.60;;
5951;SDS011;3001;42.622;23.194;2022-12-18T11:49:25;10.30;;;7.80;;
5951;SDS011;3001;42.622;23.194;2022-12-18T11:51:56;9.67;;;7.37;;
5951;SDS011;3001;42.622;23.194;2022-12-18T11:54:26;10.97;;;7.37;;
5951;SDS011;3001;42.622;23.194;2022-12-18T11:56:53;7.93;;;7.10;;
5951;SDS011;3001;42.622;23.194;2022-12-18T11:59:29;14.97;;;8.83;;
5951;SDS011;3001;42.622;23.194;2022-12-18T12:02:21;12.50;;;8.57;;
5951;SDS011;3001;42.622;23.194;2022-12-18T12:05:05;10.67;;;8.17;;
5951;SDS011;3001;42.622;23.194;2022-12-18T12:07:49;12.47;;;8.73;;
5951;SDS011;3001;42.622;23.194;2022-12-18T12:10:25;9.03;;;7.87;;
5951;SDS011;3001;42.622;23.194;2022-12-18T12:13:08;15.60;;;9.57;;
5951;SDS011;3001;42.622;23.194;2022-12-18T12:15:50;15.83;;;9.67;;
5951;SDS011;3001;42.622;23.194;2022-12-18T12:18:30;11.30;;;8.13;;
5951;SDS011;3001;42.622;23.194;2022-12-18T12:21:09;16.07;;;9.90;;
5951;SDS011;3001;42.622;23.194;2022-12-18T12:23:44;17.27;;;10.23;;
5951;SDS011;3001;42.622;23.194;2022-12-18T12:26:16;15.80;;;10.07;;
5951;SDS011;3001;42.622;23.194;2022-12-18T12:28:52;24.57;;;13.47;;
5951;SDS011;3001;42.622;23.194;2022-12-18T12:31:36;21.67;;;11.87;;
5951;SDS011;3001;42.622;23.194;2022-12-18T12:34:18;15.60;;;9.17;;
5951;SDS011;3001;42.622;23.194;2022-12-18T12:36:53;14.33;;;8.77;;
5951;SDS011;3001;42.622;23.194;2022-12-18T12:39:33;17.17;;;10.50;;
5951;SDS011;3001;42.622;23.194;2022-12-18T12:42:03;22.43;;;11.93;;
5951;SDS011;3001;42.622;23.194;2022-12-18T12:44:49;33.57;;;13.83;;
5951;SDS011;3001;42.622;23.194;2022-12-18T12:47:23;39.33;;;15.73;;
5951;SDS011;3001;42.622;23.194;2022-12-18T12:49:54;33.00;;;14.37;;
5951;SDS011;3001;42.622;23.194;2022-12-18T12:52:27;37.97;;;15.40;;
5951;SDS011;3001;42.622;23.194;2022-12-18T12:54:57;41.77;;;17.73;;
5951;SDS011;3001;42.622;23.194;2022-12-18T12:57:26;31.27;;;14.60;;
5951;SDS011;3001;42.622;23.194;2022-12-18T13:00:01;17.80;;;11.03;;
5951;SDS011;3001;42.622;23.194;2022-12-18T13:02:33;18.87;;;10.90;;
5951;SDS011;3001;42.622;23.194;2022-12-18T13:05:04;16.57;;;11.43;;
5951;SDS011;3001;42.622;23.194;2022-12-18T13:07:45;19.10;;;11.63;;
5951;SDS011;3001;42.622;23.194;2022-12-18T13:13:07;16.67;;;11.10;;
5951;SDS011;3001;42.622;23.194;2022-12-18T13:15:37;16.03;;;11.03;;
5951;SDS011;3001;42.622;23.194;2022-12-18T13:18:17;14.97;;;9.93;;
5951;SDS011;3001;42.622;23.194;2022-12-18T13:20:46;13.93;;;9.87;;
5951;SDS011;3001;42.622;23.194;2022-12-18T13:29:00;18.10;;;10.73;;
5951;SDS011;3001;42.622;23.194;2022-12-18T13:34:28;13.87;;;9.83;;
5951;SDS011;3001;42.622;23.194;2022-12-18T13:36:56;16.07;;;10.53;;
5951;SDS011;3001;42.622;23.194;2022-12-18T13:39:45;18.53;;;12.33;;
5951;SDS011;3001;42.622;23.194;2022-12-18T13:45:41;13.43;;;10.27;;
5951;SDS011;3001;42.622;23.194;2022-12-18T13:48:14;14.93;;;9.97;;
5951;SDS011;3001;42.622;23.194;2022-12-18T13:50:43;13.97;;;9.63;;
5951;SDS011;3001;42.622;23.194;2022-12-18T13:53:16;19.50;;;10.27;;
5951;SDS011;3001;42.622;23.194;2022-12-18T13:55:49;16.50;;;10.53;;
5951;SDS011;3001;42.622;23.194;2022-12-18T13:58:16;19.73;;;12.13;;
5951;SDS011;3001;42.622;23.194;2022-12-18T14:00:43;20.30;;;12.97;;
5951;SDS011;3001;42.622;23.194;2022-12-18T14:03:21;29.03;;;16.43;;
5951;SDS011;3001;42.622;23.194;2022-12-18T14:05:59;24.03;;;13.33;;
5951;SDS011;3001;42.622;23.194;2022-12-18T14:08:32;23.47;;;13.27;;
5951;SDS011;3001;42.622;23.194;2022-12-18T14:11:04;19.20;;;12.40;;
5951;SDS011;3001;42.622;23.194;2022-12-18T14:13:33;19.63;;;11.67;;
5951;SDS011;3001;42.622;23.194;2022-12-18T14:16:03;24.77;;;12.87;;
5951;SDS011;3001;42.622;23.194;2022-12-18T14:18:36;21.60;;;13.37;;
5951;SDS011;3001;42.622;23.194;2022-12-18T14:21:14;19.80;;;12.23;;
5951;SDS011;3001;42.622;23.194;2022-12-18T14:23:45;22.07;;;12.50;;
5951;SDS011;3001;42.622;23.194;2022-12-18T14:26:24;29.27;;;15.07;;
5951;SDS011;3001;42.622;23.194;2022-12-18T14:28:54;41.33;;;17.70;;
5951;SDS011;3001;42.622;23.194;2022-12-18T14:31:21;40.00;;;17.63;;
5951;SDS011;3001;42.622;23.194;2022-12-18T14:33:50;32.03;;;15.77;;
5951;SDS011;3001;42.622;23.194;2022-12-18T14:36:18;37.40;;;17.00;;
5951;SDS011;3001;42.622;23.194;2022-12-18T14:38:48;33.00;;;16.37;;
5951;SDS011;3001;42.622;23.194;2022-12-18T14:41:16;26.50;;;15.13;;
5951;SDS011;3001;42.622;23.194;2022-12-18T14:43:46;26.77;;;14.53;;
5951;SDS011;3001;42.622;23.194;2022-12-18T14:46:25;24.40;;;14.00;;
5951;SDS011;3001;42.622;23.194;2022-12-18T14:48:54;20.77;;;13.03;;
5951;SDS011;3001;42.622;23.194;2022-12-18T14:51:22;21.37;;;12.33;;
5951;SDS011;3001;42.622;23.194;2022-12-18T14:53:53;14.90;;;10.60;;
5951;SDS011;3001;42.622;23.194;2022-12-18T14:56:21;15.13;;;10.93;;
5951;SDS011;3001;42.622;23.194;2022-12-18T14:58:52;15.27;;;10.63;;
5951;SDS011;3001;42.622;23.194;2022-12-18T15:01:21;12.67;;;9.77;;
5951;SDS011;3001;42.622;23.194;2022-12-18T15:03:50;14.60;;;9.57;;
5951;SDS011;3001;42.622;23.194;2022-12-18T15:06:23;11.93;;;8.73;;
5951;SDS011;3001;42.622;23.194;2022-12-18T15:08:52;18.50;;;9.77;;
5951;SDS011;3001;42.622;23.194;2022-12-18T15:11:26;15.13;;;10.37;;
5951;SDS011;3001;42.622;23.194;2022-12-18T15:13:57;11.93;;;9.03;;
5951;SDS011;3001;42.622;23.194;2022-12-18T15:16:24;11.97;;;9.07;;
5951;SDS011;3001;42.622;23.194;2022-12-18T15:18:51;11.63;;;9.27;;
5951;SDS011;3001;42.622;23.194;2022-12-18T15:21:19;11.20;;;8.03;;
5951;SDS011;3001;42.622;23.194;2022-12-18T15:23:48;14.17;;;9.43;;
5951;SDS011;3001;42.622;23.194;2022-12-18T15:26:17;11.67;;;10.03;;
5951;SDS011;3001;42.622;23.194;2022-12-18T15:28:46;13.77;;;11.03;;